createdAt,value
2023-03-19T00:01:46.798Z,12.78
2023-03-19T00:04:49.206Z,12.85
2023-03-19T00:07:51.558Z,12.81
2023-03-19T00:10:53.904Z,12.77
2023-03-19T00:13:56.436Z,12.75
2023-03-19T00:16:58.816Z,12.83
2023-03-19T00:20:01.249Z,12.77
2023-03-19T00:23:03.600Z,12.76
2023-03-19T00:26:06.833Z,12.74
2023-03-19T00:29:09.729Z,12.70
2023-03-19T00:32:12.231Z,12.78
2023-03-19T00:35:14.975Z,12.75
2023-03-19T00:38:17.329Z,12.74
2023-03-19T00:41:21.127Z,12.71
2023-03-19T00:44:23.474Z,12.70
2023-03-19T00:47:25.993Z,12.68
2023-03-19T00:50:28.419Z,12.71
2023-03-19T00:53:30.905Z,12.70
2023-03-19T00:56:33.249Z,12.67
2023-03-19T00:59:35.809Z,12.65
2023-03-19T01:02:38.433Z,12.66
2023-03-19T01:05:41.735Z,12.59
2023-03-19T01:08:44.085Z,12.63
2023-03-19T01:11:46.574Z,12.62
2023-03-19T01:14:49.187Z,12.61
2023-03-19T01:17:51.607Z,12.50
2023-03-19T01:20:54.045Z,12.60
2023-03-19T01:23:57.394Z,12.56
2023-03-19T01:27:01.235Z,12.59
2023-03-19T01:30:11.202Z,12.58
2023-03-19T01:33:45.580Z,12.58
2023-03-19T01:37:06.664Z,12.57
2023-03-19T01:40:13.293Z,12.55
2023-03-19T01:43:18.426Z,12.51
2023-03-19T01:46:35.120Z,12.55
2023-03-19T01:50:07.556Z,12.49
2023-03-19T01:53:12.827Z,12.51
2023-03-19T01:56:35.447Z,12.48
2023-03-19T01:59:51.812Z,12.43
2023-03-19T02:03:13.212Z,12.47
2023-03-19T02:06:35.091Z,12.39
2023-03-19T02:09:38.611Z,12.43
2023-03-19T02:12:41.166Z,12.37
2023-03-19T02:15:44.028Z,12.46
2023-03-19T02:18:47.574Z,12.38
2023-03-19T02:21:50.332Z,12.38
2023-03-19T02:25:02.458Z,12.42
2023-03-19T02:28:05.511Z,12.42
2023-03-19T02:31:08.835Z,12.42
2023-03-19T02:34:14.315Z,12.40
2023-03-19T02:37:21.270Z,12.41
2023-03-19T02:40:26.762Z,12.37
2023-03-19T02:43:32.088Z,12.36
2023-03-19T02:46:34.488Z,12.37
2023-03-19T02:49:36.932Z,12.32
2023-03-19T02:52:39.710Z,12.32
2023-03-19T02:55:42.818Z,12.35
2023-03-19T02:58:45.404Z,12.32
2023-03-19T03:01:48.865Z,12.26
2023-03-19T03:04:52.172Z,12.30
2023-03-19T03:07:54.613Z,12.21
2023-03-19T03:10:57.055Z,12.23
2023-03-19T03:14:00.122Z,12.28
2023-03-19T03:17:02.660Z,12.26
2023-03-19T03:20:06.997Z,12.27
2023-03-19T03:23:09.331Z,12.26
2023-03-19T03:26:12.285Z,12.21
2023-03-19T03:29:14.600Z,12.19
2023-03-19T03:32:17.361Z,12.23
2023-03-19T03:35:22.590Z,12.14
2023-03-19T03:38:25.196Z,12.18
2023-03-19T03:41:27.713Z,12.14
2023-03-19T03:44:30.793Z,12.12
2023-03-19T03:47:33.425Z,12.15
2023-03-19T03:50:36.662Z,12.14
2023-03-19T03:53:43.212Z,12.04
2023-03-19T03:56:47.310Z,12.17
2023-03-19T03:59:49.728Z,12.00
2023-03-19T04:02:52.143Z,12.14
2023-03-19T04:05:54.535Z,12.10
2023-03-19T04:08:57.993Z,12.14
2023-03-19T04:12:01.101Z,12.12
2023-03-19T04:15:09.157Z,12.12
2023-03-19T04:18:13.021Z,12.05
2023-03-19T04:21:15.789Z,12.08
2023-03-19T04:24:18.337Z,12.04
2023-03-19T04:27:23.546Z,12.03
2023-03-19T04:30:26.254Z,12.01
2023-03-19T04:33:30.026Z,12.08
2023-03-19T04:36:32.405Z,11.99
2023-03-19T04:39:35.255Z,12.06
2023-03-19T04:42:38.269Z,12.02
2023-03-19T04:45:51.582Z,12.06
2023-03-19T04:48:54.309Z,12.03
2023-03-19T04:51:57.819Z,11.99
2023-03-19T04:55:00.197Z,11.98
2023-03-19T04:58:03.183Z,11.96
2023-03-19T05:01:08.154Z,11.88
2023-03-19T05:04:30.454Z,11.95
2023-03-19T05:07:38.270Z,12.01
2023-03-19T05:10:41.472Z,11.97
2023-03-19T05:13:44.464Z,11.93
2023-03-19T05:16:46.952Z,11.90
2023-03-19T05:19:50.319Z,12.01
2023-03-19T05:22:53.751Z,11.99
2023-03-19T05:26:01.276Z,11.94
2023-03-19T05:29:30.002Z,12.00
2023-03-19T05:32:50.395Z,11.99
2023-03-19T05:36:06.065Z,11.97
2023-03-19T05:39:35.244Z,12.00
2023-03-19T05:42:42.073Z,12.03
2023-03-19T05:45:50.914Z,12.07
2023-03-19T05:48:56.571Z,12.06
2023-03-19T05:51:59.048Z,12.08
2023-03-19T05:55:01.581Z,12.05
2023-03-19T05:58:21.977Z,12.08
2023-03-19T06:01:25.115Z,12.07
2023-03-19T06:04:27.838Z,12.09
2023-03-19T06:07:30.362Z,12.13
2023-03-19T06:10:37.307Z,12.10
2023-03-19T06:13:46.179Z,12.12
2023-03-19T06:16:52.207Z,12.14
2023-03-19T06:19:55.219Z,12.20
2023-03-19T06:22:58.333Z,12.19
2023-03-19T06:26:00.847Z,12.15
2023-03-19T06:29:09.267Z,12.24
2023-03-19T06:32:13.648Z,12.30
2023-03-19T06:35:18.457Z,12.31
2023-03-19T06:38:23.722Z,12.45
2023-03-19T06:41:26.204Z,12.51
2023-03-19T06:44:33.715Z,12.56
2023-03-19T06:47:36.803Z,12.57
2023-03-19T06:50:39.178Z,12.63
2023-03-19T06:53:41.525Z,12.69
2023-03-19T06:56:43.956Z,12.73
2023-03-19T06:59:46.494Z,12.69
2023-03-19T07:02:48.857Z,12.80
2023-03-19T07:05:51.900Z,12.74
2023-03-19T07:08:54.960Z,12.83
2023-03-19T07:11:57.294Z,12.88
2023-03-19T07:14:59.618Z,12.92
2023-03-19T07:18:02.306Z,13.02
2023-03-19T07:21:05.117Z,13.14
2023-03-19T07:24:07.797Z,13.18
2023-03-19T07:27:10.429Z,13.29
2023-03-19T07:30:13.808Z,13.38
2023-03-19T07:33:16.817Z,13.46
2023-03-19T07:36:19.474Z,13.57
2023-03-19T07:39:21.941Z,13.63
2023-03-19T07:42:24.746Z,13.71
2023-03-19T07:45:27.161Z,13.78
2023-03-19T07:48:29.549Z,13.78
2023-03-19T07:51:32.159Z,13.86
2023-03-19T07:54:36.828Z,13.92
2023-03-19T07:57:39.453Z,14.05
2023-03-19T08:00:41.919Z,14.10
2023-03-19T08:03:44.318Z,14.14
2023-03-19T08:06:46.722Z,14.25
2023-03-19T08:09:49.286Z,14.28
2023-03-19T08:12:51.684Z,14.30
2023-03-19T08:15:54.629Z,14.32
2023-03-19T08:18:57.241Z,14.33
2023-03-19T08:21:59.621Z,14.41
2023-03-19T08:25:02.748Z,14.45
2023-03-19T08:28:05.677Z,14.44
2023-03-19T08:31:10.316Z,14.44
2023-03-19T08:34:12.749Z,14.43
2023-03-19T08:37:15.413Z,14.54
2023-03-19T08:40:17.795Z,14.56
2023-03-19T08:43:20.194Z,14.53
2023-03-19T08:46:22.917Z,14.55
2023-03-19T08:49:25.517Z,14.61
2023-03-19T08:52:27.915Z,14.54
2023-03-19T08:55:30.396Z,14.58
2023-03-19T08:58:32.770Z,14.66
2023-03-19T09:01:35.419Z,14.62
2023-03-19T09:04:41.296Z,14.65
2023-03-19T09:07:43.775Z,14.66
2023-03-19T09:10:46.213Z,14.66
2023-03-19T09:13:48.572Z,14.74
2023-03-19T09:16:51.142Z,14.71
2023-03-19T09:19:53.515Z,14.80
2023-03-19T09:22:56.054Z,14.73
2023-03-19T09:25:58.424Z,14.86
2023-03-19T09:29:01.343Z,14.87
2023-03-19T09:32:04.084Z,14.89
2023-03-19T09:35:07.436Z,14.90
2023-03-19T09:38:09.811Z,14.90
2023-03-19T09:41:33.842Z,14.92
2023-03-19T09:44:44.301Z,14.93
2023-03-19T09:47:51.112Z,14.86
2023-03-19T09:50:54.025Z,14.87
2023-03-19T09:53:58.693Z,14.84
2023-03-19T09:57:01.497Z,14.81
2023-03-19T10:00:17.366Z,14.88
2023-03-19T10:03:26.042Z,14.90
2023-03-19T10:06:35.598Z,14.84
2023-03-19T10:10:06.764Z,14.90
2023-03-19T10:13:16.286Z,14.84
2023-03-19T10:16:23.343Z,14.80
2023-03-19T10:19:40.534Z,14.88
2023-03-19T10:22:50.419Z,14.86
2023-03-19T10:25:55.288Z,14.79
2023-03-19T10:29:14.974Z,14.82
2023-03-19T10:32:29.665Z,14.85
2023-03-19T10:35:46.229Z,14.83
2023-03-19T10:38:48.625Z,14.82
2023-03-19T10:41:53.054Z,14.84
2023-03-19T10:45:21.556Z,14.84
2023-03-19T10:48:28.170Z,14.74
2023-03-19T10:51:31.392Z,14.78
2023-03-19T10:54:33.779Z,14.74
2023-03-19T10:57:36.244Z,14.76
2023-03-19T11:00:38.577Z,14.78
2023-03-19T11:03:57.856Z,14.74
2023-03-19T11:07:10.353Z,14.74
2023-03-19T11:10:15.667Z,14.71
2023-03-19T11:13:24.024Z,14.77
2023-03-19T11:16:26.437Z,14.72
2023-03-19T11:19:31.468Z,14.75
2023-03-19T11:22:37.746Z,14.70
2023-03-19T11:25:42.310Z,14.72
2023-03-19T11:28:44.820Z,14.68
2023-03-19T11:32:01.886Z,14.69
2023-03-19T11:35:16.198Z,14.58
2023-03-19T11:38:28.888Z,14.64
2023-03-19T11:41:40.968Z,14.65
2023-03-19T11:45:02.177Z,14.63
2023-03-19T11:48:46.822Z,14.62
2023-03-19T11:52:13.793Z,14.61
2023-03-19T11:55:24.811Z,14.62
2023-03-19T11:59:05.250Z,14.58
2023-03-19T12:02:51.584Z,14.60
2023-03-19T12:06:18.215Z,14.58
2023-03-19T12:09:26.526Z,14.57
2023-03-19T12:12:40.080Z,14.54
2023-03-19T12:15:54.534Z,14.54
2023-03-19T12:19:19.497Z,14.54
2023-03-19T12:22:41.371Z,14.49
2023-03-19T12:26:04.729Z,14.45
2023-03-19T12:29:10.067Z,14.50
2023-03-19T12:32:20.719Z,14.49
2023-03-19T12:35:29.707Z,14.48
2023-03-19T12:38:38.920Z,14.44
2023-03-19T12:41:43.951Z,14.43
2023-03-19T12:44:49.817Z,14.47
2023-03-19T12:47:55.712Z,14.44
2023-03-19T12:51:05.424Z,14.40
2023-03-19T12:54:22.993Z,14.45
2023-03-19T12:57:40.215Z,14.39
2023-03-19T13:00:51.811Z,14.43
2023-03-19T13:04:14.467Z,14.43
2023-03-19T13:07:23.510Z,14.36
2023-03-19T13:10:26.142Z,14.36
2023-03-19T13:13:32.256Z,14.37
2023-03-19T13:16:51.604Z,14.32
2023-03-19T13:19:56.362Z,14.27
2023-03-19T13:23:02.451Z,14.36
2023-03-19T13:26:08.604Z,14.28
2023-03-19T13:29:19.258Z,14.34
2023-03-19T13:32:36.555Z,14.38
2023-03-19T13:36:06.005Z,14.36
2023-03-19T13:39:15.409Z,14.36
2023-03-19T13:42:38.439Z,14.38
2023-03-19T13:45:41.299Z,14.37
2023-03-19T13:48:46.733Z,14.36
2023-03-19T13:51:49.309Z,14.31
2023-03-19T13:54:54.552Z,14.36
2023-03-19T13:58:37.939Z,14.37
2023-03-19T14:01:44.694Z,14.30
2023-03-19T14:05:04.213Z,14.36
2023-03-19T14:08:18.478Z,14.37
2023-03-19T14:11:24.572Z,14.30
2023-03-19T14:14:26.996Z,14.35
2023-03-19T14:17:35.276Z,14.35
2023-03-19T14:21:12.974Z,14.37
2023-03-19T14:24:58.754Z,14.38
2023-03-19T14:28:03.448Z,14.38
2023-03-19T14:31:06.711Z,14.39
2023-03-19T14:34:12.056Z,14.41
2023-03-19T14:37:25.198Z,14.32
2023-03-19T14:40:33.727Z,14.40
2023-03-19T14:43:42.363Z,14.41
2023-03-19T14:47:12.267Z,14.39
2023-03-19T14:50:20.348Z,14.41
2023-03-19T14:53:28.772Z,14.42
2023-03-19T14:56:34.046Z,14.43
2023-03-19T14:59:43.119Z,14.29
2023-03-19T15:02:50.948Z,14.33
2023-03-19T15:05:57.649Z,14.35
2023-03-19T15:09:02.351Z,14.35
2023-03-19T15:12:10.815Z,14.41
2023-03-19T15:15:40.680Z,14.38
2023-03-19T15:18:43.600Z,14.32
2023-03-19T15:21:50.116Z,14.37
2023-03-19T15:24:53.644Z,14.30
2023-03-19T15:28:13.524Z,14.28
2023-03-19T15:31:31.109Z,14.39
2023-03-19T15:34:37.297Z,14.39
2023-03-19T15:37:43.922Z,14.34
2023-03-19T15:40:46.573Z,14.34
2023-03-19T15:43:49.244Z,14.34
2023-03-19T15:46:52.052Z,14.24
2023-03-19T15:50:04.696Z,14.31
2023-03-19T15:53:12.157Z,14.29
2023-03-19T15:56:17.235Z,14.27
2023-03-19T15:59:22.258Z,14.24
2023-03-19T16:02:29.098Z,14.29
2023-03-19T16:05:32.217Z,14.27
2023-03-19T16:08:34.764Z,14.21
2023-03-19T16:11:39.169Z,14.24
2023-03-19T16:14:43.112Z,14.26
2023-03-19T16:17:45.528Z,14.25
2023-03-19T16:21:07.151Z,14.25
2023-03-19T16:24:24.589Z,14.24
2023-03-19T16:27:40.390Z,14.23
2023-03-19T16:30:47.414Z,14.17
2023-03-19T16:33:52.201Z,14.21
2023-03-19T16:36:54.598Z,14.13
2023-03-19T16:39:59.074Z,14.19
2023-03-19T16:43:36.774Z,14.16
2023-03-19T16:46:39.600Z,14.13
2023-03-19T16:49:42.245Z,14.09
2023-03-19T16:52:46.092Z,14.06
2023-03-19T16:55:48.694Z,14.06
2023-03-19T16:58:51.345Z,14.10
2023-03-19T17:01:55.159Z,14.11
2023-03-19T17:04:57.898Z,14.06
2023-03-19T17:08:01.277Z,14.11
2023-03-19T17:11:04.064Z,14.09
2023-03-19T17:14:08.279Z,14.07
2023-03-19T17:17:17.598Z,14.01
2023-03-19T17:20:27.359Z,14.02
2023-03-19T17:23:30.545Z,14.02
2023-03-19T17:26:33.494Z,13.93
2023-03-19T17:29:36.093Z,13.93
2023-03-19T17:32:40.433Z,13.87
2023-03-19T17:35:43.036Z,13.92
2023-03-19T17:38:45.965Z,13.91
2023-03-19T17:41:48.559Z,13.91
2023-03-19T17:44:52.160Z,13.88
2023-03-19T17:47:59.014Z,13.89
2023-03-19T17:51:02.283Z,13.89
2023-03-19T17:54:09.184Z,13.87
2023-03-19T17:57:13.644Z,13.87
2023-03-19T18:00:16.950Z,13.82
2023-03-19T18:03:22.205Z,13.84
2023-03-19T18:06:26.776Z,13.83
2023-03-19T18:09:29.595Z,13.82
2023-03-19T18:12:32.139Z,13.80
2023-03-19T18:15:35.190Z,13.74
2023-03-19T18:18:37.813Z,13.73
2023-03-19T18:21:40.394Z,13.74
2023-03-19T18:24:44.352Z,13.78
2023-03-19T18:27:47.320Z,13.77
2023-03-19T18:30:49.906Z,13.69
2023-03-19T18:33:56.845Z,13.73
2023-03-19T18:36:59.710Z,13.73
2023-03-19T18:40:03.957Z,13.73
2023-03-19T18:43:07.251Z,13.74
2023-03-19T18:46:13.571Z,13.65
2023-03-19T18:49:23.286Z,13.72
2023-03-19T18:52:26.027Z,13.72
2023-03-19T18:55:29.683Z,13.71
2023-03-19T18:58:32.383Z,13.67
2023-03-19T19:01:34.804Z,13.63
2023-03-19T19:04:37.406Z,13.61
2023-03-19T19:07:40.041Z,13.68
2023-03-19T19:10:45.716Z,13.67
2023-03-19T19:13:59.149Z,13.62
2023-03-19T19:17:01.765Z,13.65
2023-03-19T19:20:04.545Z,13.65
2023-03-19T19:23:07.470Z,13.53
2023-03-19T19:26:27.068Z,13.61
2023-03-19T19:29:33.432Z,13.58
2023-03-19T19:32:36.514Z,13.61
2023-03-19T19:35:39.191Z,13.63
2023-03-19T19:38:41.845Z,13.53
2023-03-19T19:41:44.569Z,13.60
2023-03-19T19:44:52.823Z,13.59
2023-03-19T19:47:56.660Z,13.50
2023-03-19T19:50:59.593Z,13.59
2023-03-19T19:54:02.231Z,13.56
2023-03-19T19:57:10.627Z,13.53
2023-03-19T20:00:23.171Z,13.57
2023-03-19T20:03:27.862Z,13.54
2023-03-19T20:06:30.706Z,13.55
2023-03-19T20:09:33.292Z,13.55
2023-03-19T20:12:35.840Z,13.46
2023-03-19T20:15:38.560Z,13.50
2023-03-19T20:18:43.556Z,13.51
2023-03-19T20:21:46.620Z,13.50
2023-03-19T20:24:51.264Z,13.52
2023-03-19T20:27:59.549Z,13.53
2023-03-19T20:31:03.475Z,13.52
2023-03-19T20:34:07.081Z,13.52
2023-03-19T20:37:10.509Z,13.47
2023-03-19T20:40:13.907Z,13.47
2023-03-19T20:43:26.794Z,13.46
2023-03-19T20:46:30.580Z,13.49
2023-03-19T20:49:33.225Z,13.49
2023-03-19T20:52:36.134Z,13.43
2023-03-19T20:55:40.258Z,13.48
2023-03-19T20:58:42.679Z,13.43
2023-03-19T21:01:45.238Z,13.38
2023-03-19T21:04:48.926Z,13.47
2023-03-19T21:07:53.652Z,13.35
2023-03-19T21:10:56.342Z,13.39
2023-03-19T21:13:59.099Z,13.36
2023-03-19T21:17:01.624Z,13.43
2023-03-19T21:20:04.377Z,13.37
2023-03-19T21:23:08.218Z,13.45
2023-03-19T21:26:18.447Z,13.34
2023-03-19T21:29:27.204Z,13.41
2023-03-19T21:32:30.365Z,13.38
2023-03-19T21:35:33.197Z,13.41
2023-03-19T21:38:36.104Z,13.43
2023-03-19T21:41:38.564Z,13.42
2023-03-19T21:44:41.000Z,13.35
2023-03-19T21:47:44.440Z,13.41
2023-03-19T21:50:47.576Z,13.34
2023-03-19T21:53:50.041Z,13.42
2023-03-19T21:56:52.460Z,13.40
2023-03-19T21:59:54.782Z,13.40
2023-03-19T22:02:57.115Z,13.39
2023-03-19T22:05:59.472Z,13.31
2023-03-19T22:09:01.922Z,13.33
2023-03-19T22:12:04.388Z,13.39
2023-03-19T22:15:11.280Z,13.31
2023-03-19T22:18:15.796Z,13.33
2023-03-19T22:21:20.709Z,13.33
2023-03-19T22:24:23.025Z,13.37
2023-03-19T22:27:25.346Z,13.33
2023-03-19T22:30:37.515Z,13.35
2023-03-19T22:33:39.897Z,13.31
2023-03-19T22:36:42.709Z,13.36
2023-03-19T22:39:45.364Z,13.29
2023-03-19T22:42:48.696Z,13.35
2023-03-19T22:45:55.354Z,13.32
2023-03-19T22:48:57.914Z,13.33
2023-03-19T22:52:00.712Z,13.25
2023-03-19T22:55:03.173Z,13.26
2023-03-19T22:58:05.557Z,13.33
2023-03-19T23:01:20.704Z,13.32
2023-03-19T23:04:24.839Z,13.32
2023-03-19T23:07:27.238Z,13.31
2023-03-19T23:10:32.426Z,13.29
2023-03-19T23:13:35.399Z,13.27
2023-03-19T23:16:39.679Z,13.23
2023-03-19T23:19:42.045Z,13.21
2023-03-19T23:22:45.905Z,13.27
2023-03-19T23:25:48.968Z,13.23
2023-03-19T23:28:51.626Z,13.19
2023-03-19T23:31:53.982Z,13.18
2023-03-19T23:35:01.231Z,13.19
2023-03-19T23:38:04.345Z,13.22
2023-03-19T23:41:07.412Z,13.17
2023-03-19T23:44:11.782Z,13.20
2023-03-19T23:47:14.693Z,13.20
2023-03-19T23:50:17.272Z,13.22
2023-03-19T23:53:22.085Z,13.20
2023-03-19T23:56:26.381Z,13.13
2023-03-19T23:59:32.112Z,13.18
